Time;durP1;ratioP1;P1;durP2;ratioP2;P2;SDS_P1;SDS_P2;PMS_P1;PMS_P2;Temp;Humidity;BMP_temperature;BMP_pressure;BME280_temperature;BME280_humidity;BME280_pressure;Samples;Min_cycle;Max_cycle;Signal;HPM_P1;HPM_P2
2022/11/24 00:02:09;;;;;;;;;;;;;;;7.26;81.25;99354.28;5375032;32;34926;-62
2022/11/24 00:05:12;;;;;;;;;;;;;;;8.04;77.97;99361.34;5371271;32;35043;-73
2022/11/24 00:08:14;;;;;;;;;;;;;;;7.90;77.42;99361.97;5352954;32;35139;-62
2022/11/24 00:11:23;;;;;;;;;;;;;;;7.63;78.58;99363.19;5370311;32;35123;-62
2022/11/24 00:14:25;;;;;;;;;;;;;;;7.91;77.66;99350.56;5348949;32;34731;-63
2022/11/24 00:17:28;;;;;;;;;;;;;;;7.62;78.47;99362.34;5377172;32;34984;-63
2022/11/24 00:20:30;;;;;;;;;;;;;;;6.92;81.67;99366.13;5348771;32;34190;-72
2022/11/24 00:23:32;;;;;;;;;;;;;;;8.11;77.73;99355.78;5359806;32;45444;-86
2022/11/24 00:26:35;;;;;;;;;;;;;;;8.17;76.41;99359.88;5344054;32;34657;-86
2022/11/24 00:29:36;;;;;;;;;;;;;;;7.91;77.80;99368.87;5350358;32;35255;-87
2022/11/24 00:32:38;;;;;;;;;;;;;;;7.35;80.04;99376.59;5367052;32;34989;-88
2022/11/24 00:35:40;;;;;;;;;;;;;;;8.04;78.41;99372.66;5354883;32;34926;-63
2022/11/24 00:38:42;;;;;;;;;;;;;;;7.99;76.19;99376.41;5367533;32;35148;-62
2022/11/24 00:41:44;;;;;;;;;;;;;;;8.03;77.17;99378.81;5360371;32;35447;-62
2022/11/24 00:44:46;;;;;;;;;;;;;;;8.41;75.77;99365.78;5344993;32;34874;-62
2022/11/24 00:47:48;;;;;;;;;;;;;;;8.81;74.19;99371.75;5357417;32;35496;-87
2022/11/24 00:50:57;;;;;;;;;;;;;;;8.31;75.97;99388.06;5352334;32;34721;-72
2022/11/24 00:53:59;;;;;;;;;;;;;;;7.47;78.16;99403.06;5348711;32;34947;-71
2022/11/24 00:57:01;;;;;;;;;;;;;;;7.20;80.81;99402.41;5344594;32;45926;-86
2022/11/24 01:00:03;;;;;;;;;;;;;;;7.94;77.80;99402.78;5373729;32;35608;-63
2022/11/24 01:03:05;;;;;;;;;;;;;;;8.12;76.31;99399.34;5361924;32;35142;-62
2022/11/24 01:06:08;;;;;;;;;;;;;;;7.93;77.84;99398.47;5368977;32;35602;-87
2022/11/24 01:09:10;;;;;;;;;;;;;;;7.41;80.92;99399.84;5358009;32;35544;-73
2022/11/24 01:12:12;;;;;;;;;;;;;;;7.92;78.56;99404.63;5356534;32;34915;-63
2022/11/24 01:15:14;;;;;;;;;;;;;;;7.84;78.24;99398.84;5374464;32;35032;-61
2022/11/24 01:18:16;;;;;;;;;;;;;;;7.83;78.41;99405.00;5334704;32;35514;-62
2022/11/24 01:21:19;;;;;;;;;;;;;;;7.48;78.79;99409.13;5351098;32;34650;-87
2022/11/24 01:24:20;;;;;;;;;;;;;;;7.93;78.76;99408.94;5349779;32;35803;-89
2022/11/24 01:27:22;;;;;;;;;;;;;;;7.50;78.12;99413.38;5345740;32;34502;-62
2022/11/24 01:30:24;;;;;;;;;;;;;;;7.13;80.70;99410.56;5371912;32;35394;-87
2022/11/24 01:33:26;;;;;;;;;;;;;;;7.39;80.94;99412.97;5351897;32;35951;-87
2022/11/24 01:36:28;;;;;;;;;;;;;;;7.32;79.58;99415.00;5366783;32;35136;-62
2022/11/24 01:39:30;;;;;;;;;;;;;;;7.56;78.63;99420.97;5363104;32;34124;-86
2022/11/24 01:42:58;;;;;;;;;;;;;;;7.61;79.73;99412.94;5353344;32;44540;-87
2022/11/24 01:46:23;;;;;;;;;;;;;;;6.82;81.25;99422.22;5351872;32;34757;-62
2022/11/24 01:49:32;;;;;;;;;;;;;;;7.85;77.56;99419.72;5343123;32;35036;-62
2022/11/24 01:52:38;;;;;;;;;;;;;;;7.65;77.40;99416.25;5354186;32;44602;-88
2022/11/24 01:55:40;;;;;;;;;;;;;;;8.09;76.39;99417.78;5337928;32;34616;-72
2022/11/24 01:58:42;;;;;;;;;;;;;;;7.90;77.30;99427.38;5360312;32;34980;-86
2022/11/24 02:01:44;;;;;;;;;;;;;;;7.18;80.52;99424.31;5359509;32;35274;-61
2022/11/24 02:04:46;;;;;;;;;;;;;;;7.46;79.41;99422.25;5338536;32;35966;-61
2022/11/24 02:07:48;;;;;;;;;;;;;;;7.50;77.29;99423.00;5365647;32;34350;-86
2022/11/24 02:10:50;;;;;;;;;;;;;;;7.60;79.62;99419.94;5338884;32;35392;-62
2022/11/24 02:13:52;;;;;;;;;;;;;;;7.68;79.19;99426.59;5344793;32;34788;-61
2022/11/24 02:16:54;;;;;;;;;;;;;;;7.38;79.56;99421.72;5333960;32;34328;-63
2022/11/24 02:20:03;;;;;;;;;;;;;;;7.27;80.08;99431.75;5346612;32;35852;-86
2022/11/24 02:23:08;;;;;;;;;;;;;;;7.58;78.15;99416.50;5362138;32;45543;-86
2022/11/24 02:26:16;;;;;;;;;;;;;;;7.25;79.88;99428.38;5354640;32;34506;-63
2022/11/24 02:29:19;;;;;;;;;;;;;;;8.05;76.09;99426.72;5369861;32;34917;-63
2022/11/24 02:32:21;;;;;;;;;;;;;;;7.29;79.85;99429.97;5341206;32;35036;-62
2022/11/24 02:35:24;;;;;;;;;;;;;;;7.91;77.38;99423.81;5355113;32;35656;-86
2022/11/24 02:38:32;;;;;;;;;;;;;;;7.52;78.86;99427.22;5335113;32;34665;-62
2022/11/24 02:41:34;;;;;;;;;;;;;;;7.18;80.01;99427.78;5356624;32;45192;-62
2022/11/24 02:44:38;;;;;;;;;;;;;;;7.23;80.68;99431.06;5355323;32;34527;-87
2022/11/24 02:47:39;;;;;;;;;;;;;;;7.49;80.59;99422.16;5354930;32;34556;-88
2022/11/24 02:50:41;;;;;;;;;;;;;;;7.44;78.85;99425.84;5379640;32;35242;-62
2022/11/24 02:53:43;;;;;;;;;;;;;;;7.42;78.54;99428.53;5349215;32;34918;-62
2022/11/24 02:56:45;;;;;;;;;;;;;;;7.40;79.35;99435.56;5362095;32;34768;-87
2022/11/24 02:59:47;;;;;;;;;;;;;;;7.85;77.72;99424.94;5370562;32;34915;-86
2022/11/24 03:02:49;;;;;;;;;;;;;;;7.38;79.66;99433.94;5357507;32;35272;-86
2022/11/24 03:05:51;;;;;;;;;;;;;;;7.45;78.35;99428.41;5367238;32;35391;-85
2022/11/24 03:08:52;;;;;;;;;;;;;;;7.90;77.53;99422.13;5349492;32;35761;-88
2022/11/24 03:11:54;;;;;;;;;;;;;;;7.64;76.64;99425.03;5382264;32;34939;-85
2022/11/24 03:14:56;;;;;;;;;;;;;;;7.46;78.99;99435.31;5362311;32;34786;-72
2022/11/24 03:17:58;;;;;;;;;;;;;;;8.10;75.83;99436.97;5373066;32;35803;-85
2022/11/24 03:21:00;;;;;;;;;;;;;;;7.05;80.07;99437.00;5342909;32;34489;-86
2022/11/24 03:24:02;;;;;;;;;;;;;;;7.54;78.42;99440.25;5367283;32;45081;-86
2022/11/24 03:27:03;;;;;;;;;;;;;;;7.58;76.58;99441.81;5355744;32;34907;-87
2022/11/24 03:30:06;;;;;;;;;;;;;;;7.77;75.69;99447.13;5359288;32;34820;-85
2022/11/24 03:33:07;;;;;;;;;;;;;;;6.73;77.95;99452.19;5353069;32;35402;-62
2022/11/24 03:36:09;;;;;;;;;;;;;;;6.30;79.07;99455.53;5366222;32;34237;-62
2022/11/24 03:39:11;;;;;;;;;;;;;;;6.46;79.92;99454.06;5368270;32;34368;-86
2022/11/24 03:42:13;;;;;;;;;;;;;;;6.39;80.34;99462.19;5357776;32;35366;-62
2022/11/24 03:45:15;;;;;;;;;;;;;;;6.09;81.45;99462.38;5372408;32;34710;-86
2022/11/24 03:48:36;;;;;;;;;;;;;;;6.49;79.28;99460.94;5371469;32;44891;-85
2022/11/24 03:51:38;;;;;;;;;;;;;;;6.02;82.30;99466.13;5355645;32;34913;-88
2022/11/24 03:54:41;;;;;;;;;;;;;;;6.06;81.26;99461.66;5368105;32;34382;-86
2022/11/24 03:57:43;;;;;;;;;;;;;;;6.17;80.77;99465.56;5360668;32;34726;-61
2022/11/24 04:00:45;;;;;;;;;;;;;;;6.24;81.31;99474.87;5380229;32;34335;-62
2022/11/24 04:03:46;;;;;;;;;;;;;;;6.10;80.70;99461.47;5358897;32;32842;-62
2022/11/24 04:06:48;;;;;;;;;;;;;;;6.07;80.52;99471.19;5346039;32;35351;-85
2022/11/24 04:09:50;;;;;;;;;;;;;;;6.15;79.16;99475.22;5373627;32;35024;-86
2022/11/24 04:12:52;;;;;;;;;;;;;;;5.93;80.15;99474.28;5348404;32;34445;-86
2022/11/24 04:15:54;;;;;;;;;;;;;;;6.29;77.84;99474.72;5354038;32;35405;-86
2022/11/24 04:18:56;;;;;;;;;;;;;;;6.21;79.15;99477.59;5349768;32;37347;-62
2022/11/24 04:21:58;;;;;;;;;;;;;;;5.97;79.76;99481.06;5357774;32;35206;-61
2022/11/24 04:25:00;;;;;;;;;;;;;;;6.03;78.75;99487.81;5355939;32;35107;-62
2022/11/24 04:28:02;;;;;;;;;;;;;;;6.26;77.43;99490.50;5363073;32;44532;-85
2022/11/24 04:31:04;;;;;;;;;;;;;;;6.05;77.63;99486.00;5368268;32;34255;-62
2022/11/24 04:34:06;;;;;;;;;;;;;;;5.67;79.26;99495.97;5345660;32;35676;-85
2022/11/24 04:37:08;;;;;;;;;;;;;;;5.98;78.95;99501.88;5368537;32;34421;-85
2022/11/24 04:40:10;;;;;;;;;;;;;;;5.36;80.79;99502.19;5360916;32;34892;-62
2022/11/24 04:43:12;;;;;;;;;;;;;;;5.61;81.57;99501.41;5351018;32;35320;-61
2022/11/24 04:46:14;;;;;;;;;;;;;;;6.58;77.01;99506.75;5369790;32;35205;-84
2022/11/24 04:49:16;;;;;;;;;;;;;;;6.70;74.43;99512.38;5357660;32;35077;-87
2022/11/24 04:52:18;;;;;;;;;;;;;;;6.40;75.02;99519.56;5373850;32;35152;-64
2022/11/24 04:55:20;;;;;;;;;;;;;;;7.05;73.48;99516.25;5347458;32;35376;-62
2022/11/24 04:58:22;;;;;;;;;;;;;;;6.49;73.80;99516.59;5378725;32;34940;-64
2022/11/24 05:01:24;;;;;;;;;;;;;;;5.94;76.21;99525.53;5348521;32;35265;-85
2022/11/24 05:04:26;;;;;;;;;;;;;;;6.97;71.24;99531.38;5364615;32;35218;-88
2022/11/24 05:07:28;;;;;;;;;;;;;;;7.07;69.17;99537.09;5359276;32;34286;-71
2022/11/24 05:10:36;;;;;;;;;;;;;;;6.30;72.46;99546.88;5337222;32;34742;-62
2022/11/24 05:13:37;;;;;;;;;;;;;;;6.13;72.53;99551.84;5368299;32;44496;-63
2022/11/24 05:16:39;;;;;;;;;;;;;;;6.48;72.26;99548.84;5356372;32;34276;-62
2022/11/24 05:19:41;;;;;;;;;;;;;;;6.62;69.97;99553.56;5358179;32;35191;-63
2022/11/24 05:22:43;;;;;;;;;;;;;;;6.88;69.84;99557.81;5353924;32;35142;-62
2022/11/24 05:25:45;;;;;;;;;;;;;;;6.92;69.36;99563.81;5359063;32;35687;-62
2022/11/24 05:28:48;;;;;;;;;;;;;;;7.13;68.87;99562.12;5359538;32;35452;-86
2022/11/24 05:31:50;;;;;;;;;;;;;;;6.87;70.72;99566.56;5351469;32;37089;-85
2022/11/24 05:34:53;;;;;;;;;;;;;;;7.12;68.98;99573.50;5375431;32;35839;-86
2022/11/24 05:37:56;;;;;;;;;;;;;;;6.75;69.28;99573.09;5350755;32;34879;-85
2022/11/24 05:40:59;;;;;;;;;;;;;;;6.38;72.06;99572.72;5367238;32;35134;-63
2022/11/24 05:44:01;;;;;;;;;;;;;;;6.22;73.19;99575.84;5329122;32;47138;-87
2022/11/24 05:47:03;;;;;;;;;;;;;;;5.55;75.39;99583.25;5357026;32;34793;-85
2022/11/24 05:50:05;;;;;;;;;;;;;;;6.38;72.57;99584.03;5375580;32;34953;-63
2022/11/24 05:53:11;;;;;;;;;;;;;;;6.08;74.44;99585.06;5352209;32;34758;-62
2022/11/24 05:56:12;;;;;;;;;;;;;;;6.35;74.34;99584.09;5369756;32;35091;-85
2022/11/24 05:59:14;;;;;;;;;;;;;;;5.71;75.59;99596.63;5366212;32;35717;-83
2022/11/24 06:02:16;;;;;;;;;;;;;;;6.08;74.81;99590.28;5375620;32;35865;-62
2022/11/24 06:05:18;;;;;;;;;;;;;;;6.28;74.12;99597.44;5363921;32;35212;-62
2022/11/24 06:08:20;;;;;;;;;;;;;;;7.22;70.38;99595.78;5331575;32;34351;-63
2022/11/24 06:11:26;;;;;;;;;;;;;;;7.38;68.24;99596.87;5374835;32;34964;-63
2022/11/24 06:14:28;;;;;;;;;;;;;;;7.14;68.67;99589.97;5348937;32;34210;-63
2022/11/24 06:17:30;;;;;;;;;;;;;;;6.99;68.70;99596.63;5367795;32;34085;-74
2022/11/24 06:20:31;;;;;;;;;;;;;;;6.79;67.91;99602.56;5330735;32;44339;-75
2022/11/24 06:23:34;;;;;;;;;;;;;;;6.39;70.01;99608.34;5372931;32;34864;-62
2022/11/24 06:26:36;;;;;;;;;;;;;;;7.06;67.58;99612.00;5339800;32;34307;-75
2022/11/24 06:29:38;;;;;;;;;;;;;;;7.07;66.52;99615.47;5349912;32;34291;-75
2022/11/24 06:32:43;;;;;;;;;;;;;;;6.17;69.45;99610.81;5347374;32;34374;-60
2022/11/24 06:35:50;;;;;;;;;;;;;;;5.94;70.66;99627.25;5347246;32;34899;-62
2022/11/24 06:38:52;;;;;;;;;;;;;;;6.50;68.81;99634.91;5360570;32;34379;-71
2022/11/24 06:41:54;;;;;;;;;;;;;;;6.63;69.07;99633.59;5352448;32;34513;-65
2022/11/24 06:44:56;;;;;;;;;;;;;;;6.87;67.64;99638.88;5365157;32;36564;-63
2022/11/24 06:47:58;;;;;;;;;;;;;;;6.21;70.67;99638.53;5357032;32;35027;-64
2022/11/24 06:51:01;;;;;;;;;;;;;;;6.68;68.41;99634.28;5338754;32;34428;-62
2022/11/24 06:54:06;;;;;;;;;;;;;;;7.20;66.63;99642.84;5374238;32;45463;-86
2022/11/24 06:57:08;;;;;;;;;;;;;;;7.63;65.31;99632.53;5363700;32;35537;-80
2022/11/24 07:00:10;;;;;;;;;;;;;;;7.34;67.22;99650.19;5356419;32;37544;-63
2022/11/24 07:03:13;;;;;;;;;;;;;;;7.41;66.22;99656.06;5348021;32;34306;-78
2022/11/24 07:06:15;;;;;;;;;;;;;;;7.38;64.49;99659.63;5363536;32;33900;-77
2022/11/24 07:09:20;;;;;;;;;;;;;;;7.31;65.38;99671.22;5352918;32;35750;-65
2022/11/24 07:12:23;;;;;;;;;;;;;;;7.36;64.82;99663.22;5352554;32;35568;-79
2022/11/24 07:15:25;;;;;;;;;;;;;;;6.99;64.80;99670.63;5360312;32;35447;-62
2022/11/24 07:18:27;;;;;;;;;;;;;;;7.51;63.84;99667.84;5329235;32;37064;-75
2022/11/24 07:21:29;;;;;;;;;;;;;;;7.51;63.35;99684.41;5352672;32;35373;-74
2022/11/24 07:24:31;;;;;;;;;;;;;;;7.79;62.37;99681.59;5352536;32;44744;-74
2022/11/24 07:27:34;;;;;;;;;;;;;;;7.69;62.47;99687.22;5361000;32;34169;-66
2022/11/24 07:30:36;;;;;;;;;;;;;;;6.92;64.02;99689.19;5350727;32;34344;-87
2022/11/24 07:33:38;;;;;;;;;;;;;;;7.26;62.50;99696.66;5354746;32;32861;-62
2022/11/24 07:36:40;;;;;;;;;;;;;;;7.22;62.84;99702.94;5359361;32;35506;-74
2022/11/24 07:39:42;;;;;;;;;;;;;;;7.86;61.33;99701.38;5346268;32;35499;-79
2022/11/24 07:42:44;;;;;;;;;;;;;;;7.95;59.37;99705.38;5358532;32;34994;-65
2022/11/24 07:45:51;;;;;;;;;;;;;;;7.28;61.52;99707.94;5334843;32;33414;-62
2022/11/24 07:48:54;;;;;;;;;;;;;;;7.60;61.39;99704.13;5339250;32;34234;-66
2022/11/24 07:51:56;;;;;;;;;;;;;;;7.09;63.14;99702.53;5351433;32;34364;-64
2022/11/24 07:54:58;;;;;;;;;;;;;;;6.93;63.68;99706.56;5347919;32;35426;-63
2022/11/24 07:58:00;;;;;;;;;;;;;;;7.32;63.18;99707.75;5353193;32;35554;-75
2022/11/24 08:01:12;;;;;;;;;;;;;;;7.55;62.79;99712.16;5335606;32;44417;-63
2022/11/24 08:04:14;;;;;;;;;;;;;;;8.04;61.66;99715.47;5357107;32;34397;-80
2022/11/24 08:07:16;;;;;;;;;;;;;;;8.63;58.71;99712.25;5346851;32;34829;-82
2022/11/24 08:10:18;;;;;;;;;;;;;;;8.66;59.02;99714.75;5349566;32;34199;-79
2022/11/24 08:13:22;;;;;;;;;;;;;;;8.72;59.41;99713.63;5358360;32;35661;-64
2022/11/24 08:16:24;;;;;;;;;;;;;;;8.92;58.23;99721.50;5358533;32;35549;-61
2022/11/24 08:19:26;;;;;;;;;;;;;;;8.89;57.21;99720.78;5335168;32;34254;-63
2022/11/24 08:22:28;;;;;;;;;;;;;;;8.86;57.83;99719.13;5349585;32;34398;-81
2022/11/24 08:25:31;;;;;;;;;;;;;;;8.35;59.37;99727.34;5347414;32;35938;-75
2022/11/24 08:28:34;;;;;;;;;;;;;;;8.26;59.08;99730.34;5343360;32;44397;-65
2022/11/24 08:31:37;;;;;;;;;;;;;;;8.16;59.83;99729.84;5337227;32;34897;-64
2022/11/24 08:34:39;;;;;;;;;;;;;;;7.59;62.20;99737.25;5349195;32;35392;-63
2022/11/24 08:37:40;;;;;;;;;;;;;;;7.48;61.99;99735.97;5334832;32;35282;-64
2022/11/24 08:40:42;;;;;;;;;;;;;;;8.05;61.16;99735.53;5367754;32;34354;-62
2022/11/24 08:43:44;;;;;;;;;;;;;;;7.66;61.28;99744.88;5354307;32;35885;-63
2022/11/24 08:46:46;;;;;;;;;;;;;;;8.09;60.49;99750.19;5367946;32;34537;-80
2022/11/24 08:49:48;;;;;;;;;;;;;;;7.53;62.27;99753.16;5348719;32;34109;-63
2022/11/24 08:52:51;;;;;;;;;;;;;;;7.71;61.63;99758.63;5346782;32;35531;-87
2022/11/24 08:55:57;;;;;;;;;;;;;;;7.44;62.55;99763.13;5364588;32;35492;-74
2022/11/24 08:58:59;;;;;;;;;;;;;;;7.40;62.17;99758.91;5355017;32;35382;-65
2022/11/24 09:02:01;;;;;;;;;;;;;;;7.97;61.02;99753.28;5357785;32;45108;-66
2022/11/24 09:05:04;;;;;;;;;;;;;;;7.56;62.62;99755.69;5346971;32;36108;-66
2022/11/24 09:08:23;;;;;;;;;;;;;;;7.92;60.80;99768.31;5344695;32;35721;-64
2022/11/24 09:11:26;;;;;;;;;;;;;;;7.85;61.25;99762.44;5356790;32;35836;-64
2022/11/24 09:14:28;;;;;;;;;;;;;;;7.69;61.31;99755.25;5352242;32;35912;-67
2022/11/24 09:17:30;;;;;;;;;;;;;;;7.69;59.32;99755.25;5361034;32;34091;-62
2022/11/24 09:20:32;;;;;;;;;;;;;;;8.24;58.73;99760.97;5329410;32;44533;-63
2022/11/24 09:23:34;;;;;;;;;;;;;;;8.50;57.63;99765.19;5346973;32;34540;-63
2022/11/24 09:26:37;;;;;;;;;;;;;;;8.32;58.65;99769.38;5338233;32;35547;-64
2022/11/24 09:29:43;;;;;;;;;;;;;;;8.23;59.07;99762.72;5329674;32;34251;-75
2022/11/24 09:32:45;;;;;;;;;;;;;;;8.36;58.41;99773.59;5352756;32;34334;-77
2022/11/24 09:35:48;;;;;;;;;;;;;;;7.78;60.44;99768.81;5355831;32;34483;-63
2022/11/24 09:38:50;;;;;;;;;;;;;;;7.64;60.16;99767.63;5366674;32;34635;-63
2022/11/24 09:42:11;;;;;;;;;;;;;;;8.89;57.31;99765.34;5353656;32;36199;-84
2022/11/24 09:45:40;;;;;;;;;;;;;;;8.89;56.84;99770.59;5373301;32;35604;-65
2022/11/24 09:49:02;;;;;;;;;;;;;;;8.56;57.90;99775.41;5348543;32;35982;-64
2022/11/24 09:52:07;;;;;;;;;;;;;;;8.82;55.66;99758.63;5336289;32;35530;-64
2022/11/24 09:55:30;;;;;;;;;;;;;;;9.10;55.43;99755.72;5352409;32;35698;-76
2022/11/24 09:58:41;;;;;;;;;;;;;;;9.64;54.47;99762.06;5347700;32;44483;-78
2022/11/24 10:01:43;;;;;;;;;;;;;;;8.97;55.78;99758.00;5355733;32;35112;-76
2022/11/24 10:04:45;;;;;;;;;;;;;;;9.26;55.16;99769.00;5366264;32;35519;-68
2022/11/24 10:07:56;;;;;;;;;;;;;;;9.25;56.33;99772.53;5336316;32;34384;-70
2022/11/24 10:10:59;;;;;;;;;;;;;;;8.82;55.49;99772.59;5363178;32;34387;-65
2022/11/24 10:14:19;;;;;;;;;;;;;;;8.31;58.07;99779.00;5354392;32;44565;-74
2022/11/24 10:17:28;;;;;;;;;;;;;;;7.86;58.74;99777.25;5356697;32;35309;-83
2022/11/24 10:20:30;;;;;;;;;;;;;;;8.08;59.45;99779.87;5327292;32;35050;-71
2022/11/24 10:23:39;;;;;;;;;;;;;;;8.64;58.25;99771.59;5346774;32;44794;-69
2022/11/24 10:26:45;;;;;;;;;;;;;;;9.39;56.78;99775.41;5362276;32;35168;-66
2022/11/24 10:29:48;;;;;;;;;;;;;;;9.37;55.38;99764.13;5320984;32;34382;-64
2022/11/24 10:32:59;;;;;;;;;;;;;;;8.39;56.90;99783.97;5348503;32;35620;-64
2022/11/24 10:36:09;;;;;;;;;;;;;;;8.72;56.82;99770.41;5339906;32;44744;-63
2022/11/24 10:39:30;;;;;;;;;;;;;;;8.66;56.35;99768.91;5323161;32;34588;-66
2022/11/24 10:42:36;;;;;;;;;;;;;;;8.81;56.68;99777.88;5359288;32;43582;-67
2022/11/24 10:45:38;;;;;;;;;;;;;;;8.68;56.18;99774.91;5344888;32;35709;-84
2022/11/24 10:48:42;;;;;;;;;;;;;;;8.84;56.74;99780.41;5352516;32;34443;-81
2022/11/24 10:52:00;;;;;;;;;;;;;;;8.43;58.21;99785.53;5353182;32;35534;-65
2022/11/24 10:55:03;;;;;;;;;;;;;;;8.34;58.74;99797.19;5355062;32;44273;-87
2022/11/24 10:58:13;;;;;;;;;;;;;;;7.66;61.69;99802.41;5355486;32;34293;-85
2022/11/24 11:01:20;;;;;;;;;;;;;;;8.31;60.86;99799.09;5333429;32;34532;-92
2022/11/24 11:04:32;;;;;;;;;;;;;;;8.12;61.66;99805.03;5345525;32;34284;-65
2022/11/24 11:07:34;;;;;;;;;;;;;;;8.05;61.50;99810.53;5350962;32;44838;-66
2022/11/24 11:10:36;;;;;;;;;;;;;;;8.03;60.19;99813.22;5330763;32;35047;-64
2022/11/24 11:13:49;;;;;;;;;;;;;;;8.30;61.07;99813.09;5350243;32;35337;-90
2022/11/24 11:16:52;;;;;;;;;;;;;;;8.80;59.75;99815.50;5336988;32;34196;-65
2022/11/24 11:19:55;;;;;;;;;;;;;;;9.08;58.64;99812.56;5330159;32;35471;-66
2022/11/24 11:23:12;;;;;;;;;;;;;;;9.74;57.23;99808.81;5336455;32;44550;-79
2022/11/24 11:26:23;;;;;;;;;;;;;;;9.69;57.07;99818.66;5327971;32;34290;-69
2022/11/24 11:29:25;;;;;;;;;;;;;;;9.38;55.91;99819.13;5359661;32;34570;-68
2022/11/24 11:32:52;;;;;;;;;;;;;;;8.95;57.51;99828.84;5347454;32;34693;-63
2022/11/24 11:36:14;;;;;;;;;;;;;;;7.94;60.24;99829.28;5353173;32;35813;-65
2022/11/24 11:39:16;;;;;;;;;;;;;;;9.26;56.81;99839.78;5331540;32;35008;-85
2022/11/24 11:42:33;;;;;;;;;;;;;;;9.50;56.15;99836.13;5342853;32;35335;-83
2022/11/24 11:45:58;;;;;;;;;;;;;;;9.30;56.68;99831.75;5362495;32;36153;-66
2022/11/24 11:49:00;;;;;;;;;;;;;;;9.52;56.10;99831.66;5336387;32;34485;-67
2022/11/24 11:52:08;;;;;;;;;;;;;;;9.42;57.07;99839.09;5363499;32;44243;-63
2022/11/24 11:55:28;;;;;;;;;;;;;;;9.53;55.94;99835.13;5340171;32;34239;-65
2022/11/24 11:58:33;;;;;;;;;;;;;;;9.28;56.82;99830.97;5345160;32;37046;-65
2022/11/24 12:01:51;;;;;;;;;;;;;;;10.66;53.53;99822.94;5358027;32;35751;-72
2022/11/24 12:04:53;;;;;;;;;;;;;;;9.79;55.02;99827.00;5345954;32;35389;-64
2022/11/24 12:08:07;;;;;;;;;;;;;;;8.61;58.52;99841.56;5361953;32;35839;-64
2022/11/24 12:11:19;;;;;;;;;;;;;;;9.41;56.99;99834.75;5352839;32;34258;-65
2022/11/24 12:14:21;;;;;;;;;;;;;;;9.53;56.32;99830.72;5342226;32;34468;-63
2022/11/24 12:17:33;;;;;;;;;;;;;;;9.91;55.78;99839.53;5354424;32;35127;-63
2022/11/24 12:20:53;;;;;;;;;;;;;;;10.51;54.16;99829.78;5326310;32;43742;-64
2022/11/24 12:24:04;;;;;;;;;;;;;;;9.96;56.15;99831.47;5360606;32;34418;-68
2022/11/24 12:27:16;;;;;;;;;;;;;;;11.21;52.74;99820.22;5350121;32;44743;-66
2022/11/24 12:30:24;;;;;;;;;;;;;;;10.27;54.69;99841.44;5349771;32;35928;-63
2022/11/24 12:33:38;;;;;;;;;;;;;;;10.24;54.63;99831.94;5355924;32;34237;-64
2022/11/24 12:36:58;;;;;;;;;;;;;;;9.59;55.92;99835.72;5333793;32;44883;-64
2022/11/24 12:40:03;;;;;;;;;;;;;;;9.60;57.04;99826.94;5348930;32;33409;-63
2022/11/24 12:43:20;;;;;;;;;;;;;;;10.03;55.68;99838.12;5344248;32;44773;-65
2022/11/24 12:46:28;;;;;;;;;;;;;;;9.86;56.41;99846.78;5346112;32;35548;-65
2022/11/24 12:49:50;;;;;;;;;;;;;;;11.12;53.24;99842.56;5359871;32;34179;-65
2022/11/24 12:53:01;;;;;;;;;;;;;;;11.09;52.29;99845.34;5349951;32;36739;-65
2022/11/24 12:56:07;;;;;;;;;;;;;;;11.17;51.73;99844.97;5360069;32;44705;-67
2022/11/24 12:59:09;;;;;;;;;;;;;;;10.22;54.75;99859.16;5357723;32;34609;-63
2022/11/24 13:02:30;;;;;;;;;;;;;;;9.81;55.58;99847.91;5337438;32;34465;-63
2022/11/24 13:05:47;;;;;;;;;;;;;;;10.06;54.74;99845.03;5354399;32;44674;-65
2022/11/24 13:08:49;;;;;;;;;;;;;;;9.25;57.47;99848.59;5337242;32;34409;-68
2022/11/24 13:11:52;;;;;;;;;;;;;;;9.44;57.35;99836.38;5353767;32;35456;-70
2022/11/24 13:14:54;;;;;;;;;;;;;;;8.94;59.46;99855.09;5350137;32;37399;-80
2022/11/24 13:17:56;;;;;;;;;;;;;;;8.92;59.37;99867.41;5328118;32;1020498;-79
2022/11/24 13:21:29;;;;;;;;;;;;;;;8.75;60.96;99869.84;5336970;32;35107;-65
2022/11/24 13:24:32;;;;;;;;;;;;;;;9.03;59.63;99869.59;5354332;32;46093;-75
2022/11/24 13:27:39;;;;;;;;;;;;;;;9.17;59.88;99869.88;5362992;32;34364;-64
2022/11/24 13:30:44;;;;;;;;;;;;;;;9.94;57.50;99862.19;5344241;32;34847;-65
2022/11/24 13:33:45;;;;;;;;;;;;;;;9.09;59.11;99869.34;5347097;32;34827;-65
2022/11/24 13:36:51;;;;;;;;;;;;;;;8.62;59.92;99875.56;5361059;32;34631;-63
2022/11/24 13:39:57;;;;;;;;;;;;;;;8.62;61.31;99886.03;5352985;32;34397;-64
2022/11/24 13:43:02;;;;;;;;;;;;;;;9.48;59.12;99883.41;5351744;32;36229;-67
2022/11/24 13:46:06;;;;;;;;;;;;;;;9.45;59.44;99886.16;5343214;32;46432;-66
2022/11/24 13:49:12;;;;;;;;;;;;;;;9.21;60.16;99880.19;5334489;32;35711;-63
2022/11/24 13:52:33;;;;;;;;;;;;;;;9.56;58.85;99879.59;5354415;32;35091;-63
2022/11/24 13:55:37;;;;;;;;;;;;;;;9.05;60.39;99889.59;5346713;32;44490;-65
2022/11/24 13:58:40;;;;;;;;;;;;;;;8.61;61.36;99873.88;5343477;32;34511;-80
2022/11/24 14:01:43;;;;;;;;;;;;;;;9.40;60.36;99890.75;5337896;32;34206;-76
2022/11/24 14:04:45;;;;;;;;;;;;;;;9.42;59.96;99899.41;5362010;32;34580;-78
2022/11/24 14:07:47;;;;;;;;;;;;;;;9.52;59.79;99899.84;5340225;32;34254;-64
2022/11/24 14:10:49;;;;;;;;;;;;;;;9.52;60.10;99899.84;5348102;32;34404;-67
2022/11/24 14:13:51;;;;;;;;;;;;;;;9.33;60.62;99909.41;5355501;32;34521;-74
2022/11/24 14:17:04;;;;;;;;;;;;;;;9.27;60.68;99913.16;5353125;32;34243;-85
2022/11/24 14:20:15;;;;;;;;;;;;;;;8.66;61.79;99916.47;5341854;32;44728;-73
2022/11/24 14:23:17;;;;;;;;;;;;;;;8.89;61.54;99918.19;5337978;32;35613;-80
2022/11/24 14:26:20;;;;;;;;;;;;;;;8.86;61.49;99913.06;5364125;32;34176;-78
2022/11/24 14:29:22;;;;;;;;;;;;;;;8.72;62.73;99911.91;5356491;32;36057;-83
2022/11/24 14:32:24;;;;;;;;;;;;;;;8.22;63.10;99907.63;5349260;32;34373;-77
2022/11/24 14:35:27;;;;;;;;;;;;;;;8.16;64.20;99910.47;5345934;32;35469;-82
2022/11/24 14:38:30;;;;;;;;;;;;;;;8.17;63.98;99920.03;5347320;32;34383;-67
2022/11/24 14:41:32;;;;;;;;;;;;;;;8.31;64.24;99927.41;5352594;32;44745;-63
2022/11/24 14:44:42;;;;;;;;;;;;;;;8.24;64.61;99928.50;5351777;32;35916;-76
2022/11/24 14:47:44;;;;;;;;;;;;;;;8.54;63.70;99929.16;5339177;32;35590;-64
2022/11/24 14:50:46;;;;;;;;;;;;;;;8.78;63.15;99932.63;5340771;32;36683;-65
2022/11/24 14:53:50;;;;;;;;;;;;;;;8.81;62.61;99937.72;5334197;32;34420;-85
2022/11/24 14:56:59;;;;;;;;;;;;;;;8.79;62.50;99942.19;5363788;32;34281;-67
2022/11/24 15:00:08;;;;;;;;;;;;;;;8.08;65.13;99965.72;5340691;32;44604;-79
2022/11/24 15:03:15;;;;;;;;;;;;;;;8.49;64.36;99966.00;5359205;32;38878;-83
2022/11/24 15:06:18;;;;;;;;;;;;;;;7.95;65.18;99972.28;5346053;32;35408;-88
2022/11/24 15:09:38;;;;;;;;;;;;;;;8.11;65.08;99977.84;5346609;32;36132;-73
2022/11/24 15:12:41;;;;;;;;;;;;;;;8.13;64.53;99971.66;5339763;32;45841;-68
2022/11/24 15:15:47;;;;;;;;;;;;;;;8.04;64.01;99977.19;5334086;32;34948;-67
2022/11/24 15:18:56;;;;;;;;;;;;;;;8.02;64.05;99978.16;5337473;32;35280;-67
2022/11/24 15:21:58;;;;;;;;;;;;;;;8.51;63.16;99984.31;5335796;32;35924;-74
2022/11/24 15:25:00;;;;;;;;;;;;;;;8.62;62.50;99982.97;5332094;32;34947;-67
2022/11/24 15:28:02;;;;;;;;;;;;;;;8.63;62.42;99989.94;5338602;32;45175;-68
2022/11/24 15:31:05;;;;;;;;;;;;;;;8.03;63.71;99993.81;5352291;32;34286;-66
2022/11/24 15:34:08;;;;;;;;;;;;;;;8.41;63.51;99989.00;5349724;32;37367;-67
2022/11/24 15:37:11;;;;;;;;;;;;;;;8.85;62.25;99992.59;5329392;32;35638;-66
2022/11/24 15:40:13;;;;;;;;;;;;;;;8.59;62.82;99993.56;5338035;32;35825;-67
2022/11/24 15:43:18;;;;;;;;;;;;;;;7.72;66.15;100001.84;5337922;32;37540;-66
2022/11/24 15:46:20;;;;;;;;;;;;;;;7.72;66.40;100006.22;5341121;32;34373;-67
2022/11/24 15:49:22;;;;;;;;;;;;;;;8.51;63.32;100000.88;5368852;32;34633;-65
2022/11/24 15:52:24;;;;;;;;;;;;;;;8.40;63.26;99995.16;5351561;32;34293;-66
2022/11/24 15:55:26;;;;;;;;;;;;;;;8.55;63.42;100004.22;5353339;32;34433;-67
2022/11/24 15:58:28;;;;;;;;;;;;;;;8.93;61.92;100002.78;5349556;32;32565;-68
2022/11/24 16:01:31;;;;;;;;;;;;;;;9.05;61.24;100001.47;5376811;32;34749;-67
2022/11/24 16:04:33;;;;;;;;;;;;;;;8.20;64.03;100008.94;5356210;32;46041;-84
2022/11/24 16:07:35;;;;;;;;;;;;;;;8.20;64.44;100014.19;5359335;32;33828;-67
2022/11/24 16:10:37;;;;;;;;;;;;;;;8.25;64.71;100014.03;5372421;32;35131;-84
2022/11/24 16:13:39;;;;;;;;;;;;;;;8.35;63.67;100013.66;5337737;32;34674;-83